Seiyoh No.6 — JD3381 — position and weather

sailwx.info

Track history (hours):
 
Tides and Currents Weather Stations Pressure Air Temp Water Temp Dewpoint Dewpoint Depression Visibility Wind Speed Wind Dir Waves Ship Positions

Seiyoh No.6

Last reported at 2018-Jan-20 07:31 UTC. Time now 2018-Jan-20 13:04 UTC.
Position N 34°34' E 134°49'.

Length 60 m.

Type: Tanker. MMSI: 431003734.

Date/timePositionNaut miles runAvg speedWind from/ knotsBaromVisibWave heightAir tempDewpointWater temp
2018-Jan-20 07:31N 34°34' E 134°49'011.6
2018-Jan-20 07:29N 34°35' E 134°50'610.3
2018-Jan-20 06:57N 34°37' E 134°56'4 9.6
2018-Jan-20 06:30N 34°38' E 135°01'4 8.2
2018-Jan-20 06:00N 34°36' E 135°06'510.5
2018-Jan-20 05:30N 34°37' E 135°12'510.2
2018-Jan-20 05:01N 34°39' E 135°18'1 1.9
2018-Jan-20 04:29N 34°40' E 135°18'0 0.7
2018-Jan-20 03:59N 34°40' E 135°18'0 0.0
2018-Jan-20 03:29N 34°40' E 135°18'0 0.0
2018-Jan-20 02:59N 34°40' E 135°18'0 0.0
2018-Jan-20 02:29N 34°40' E 135°18'0 0.1
2018-Jan-20 01:59N 34°40' E 135°18'0 0.0
2018-Jan-20 01:29N 34°40' E 135°18'0 0.0
2018-Jan-20 00:59N 34°40' E 135°18'0 0.1
2018-Jan-20 00:30N 34°40' E 135°17'5 9.2
2018-Jan-20 00:00N 34°36' E 135°15'611.9
2018-Jan-19 23:30N 34°30' E 135°12'611.8
2018-Jan-19 23:00N 34°25' E 135°09'612.1
2018-Jan-19 22:30N 34°20' E 135°06'612.6
2018-Jan-19 22:00N 34°14' E 135°03'611.7
2018-Jan-19 21:30N 34°08' E 135°02'611.5
2018-Jan-19 21:00N 34°02' E 135°02'95 6.4
2018-Jan-19 06:09N 34°49' E 136°43'311.8
2018-Jan-19 05:55N 34°52' E 136°42'511.8
2018-Jan-19 05:30N 34°57' E 136°41'2 3.4
2018-Jan-19 04:59N 34°58' E 136°39'0 0.0
2018-Jan-19 04:29N 34°58' E 136°39'0 0.0
2018-Jan-19 03:59N 34°58' E 136°39'0 0.0
2018-Jan-19 03:28N 34°58' E 136°39'0 0.0
2018-Jan-19 02:58N 34°58' E 136°39'0 0.0
2018-Jan-19 02:30N 34°58' E 136°39'0 0.0
2018-Jan-19 02:00N 34°58' E 136°39'0 0.0
2018-Jan-19 01:30N 34°58' E 136°39'0 0.0
2018-Jan-19 01:00N 34°58' E 136°39'0 0.0
2018-Jan-19 00:30N 34°58' E 136°39'0 0.0
2018-Jan-19 00:00N 34°58' E 136°39'0 0.0
2018-Jan-18 23:30N 34°58' E 136°39'3 6.8
2018-Jan-18 23:00N 34°55' E 136°42'611.7
2018-Jan-18 22:30N 34°50' E 136°45'611.8
2018-Jan-18 22:00N 34°45' E 136°50'7210.7
2018-Jan-18 15:13N 34°35' E 138°17'710.8
2018-Jan-18 14:36N 34°37' E 138°25'410.7
2018-Jan-18 14:14N 34°37' E 138°29'57 9.6
2018-Jan-18 08:15N 35°03' E 139°32'611.6
2018-Jan-18 07:45N 35°06' E 139°38'412.0
2018-Jan-18 07:25N 35°08' E 139°42'512.2
2018-Jan-18 07:00N 35°12' E 139°45'610.5
2018-Jan-18 06:27N 35°18' E 139°44'511.2
2018-Jan-18 06:00N 35°22' E 139°42'611.5
2018-Jan-18 05:29N 35°27' E 139°47'612.0
2018-Jan-18 05:00N 35°32' E 139°50'5 7.1
2018-Jan-18 04:14N 35°37' E 139°50'  
Track history (hours):
 
Tides and Currents Weather Stations Pressure Air Temp Water Temp Dewpoint Dewpoint Depression Visibility Wind Speed Wind Dir Waves Ship Positions

Seiyoh No.6

Last reported at 2018-Jan-20 07:31 UTC. Time now 2018-Jan-20 13:04 UTC.
Position N 34°34' E 134°49'.

Length 60 m.

Type: Tanker. MMSI: 431003734.

Date/timePositionNaut miles runAvg speedWind from/ knotsBaromVisibWave heightAir tempDewpointWater temp
2018-Jan-20 07:31N 34°34' E 134°49'011.6
2018-Jan-20 07:29N 34°35' E 134°50'610.3
2018-Jan-20 06:57N 34°37' E 134°56'4 9.6
2018-Jan-20 06:30N 34°38' E 135°01'4 8.2
2018-Jan-20 06:00N 34°36' E 135°06'510.5
2018-Jan-20 05:30N 34°37' E 135°12'510.2
2018-Jan-20 05:01N 34°39' E 135°18'1 1.9
2018-Jan-20 04:29N 34°40' E 135°18'0 0.7
2018-Jan-20 03:59N 34°40' E 135°18'0 0.0
2018-Jan-20 03:29N 34°40' E 135°18'0 0.0
2018-Jan-20 02:59N 34°40' E 135°18'0 0.0
2018-Jan-20 02:29N 34°40' E 135°18'0 0.1
2018-Jan-20 01:59N 34°40' E 135°18'0 0.0
2018-Jan-20 01:29N 34°40' E 135°18'0 0.0
2018-Jan-20 00:59N 34°40' E 135°18'0 0.1
2018-Jan-20 00:30N 34°40' E 135°17'5 9.2
2018-Jan-20 00:00N 34°36' E 135°15'611.9
2018-Jan-19 23:30N 34°30' E 135°12'611.8
2018-Jan-19 23:00N 34°25' E 135°09'612.1
2018-Jan-19 22:30N 34°20' E 135°06'612.6
2018-Jan-19 22:00N 34°14' E 135°03'611.7
2018-Jan-19 21:30N 34°08' E 135°02'611.5
2018-Jan-19 21:00N 34°02' E 135°02'95 6.4
2018-Jan-19 06:09N 34°49' E 136°43'311.8
2018-Jan-19 05:55N 34°52' E 136°42'511.8
2018-Jan-19 05:30N 34°57' E 136°41'2 3.4
2018-Jan-19 04:59N 34°58' E 136°39'0 0.0
2018-Jan-19 04:29N 34°58' E 136°39'0 0.0
2018-Jan-19 03:59N 34°58' E 136°39'0 0.0
2018-Jan-19 03:28N 34°58' E 136°39'0 0.0
2018-Jan-19 02:58N 34°58' E 136°39'0 0.0
2018-Jan-19 02:30N 34°58' E 136°39'0 0.0
2018-Jan-19 02:00N 34°58' E 136°39'0 0.0
2018-Jan-19 01:30N 34°58' E 136°39'0 0.0
2018-Jan-19 01:00N 34°58' E 136°39'0 0.0
2018-Jan-19 00:30N 34°58' E 136°39'0 0.0
2018-Jan-19 00:00N 34°58' E 136°39'0 0.0
2018-Jan-18 23:30N 34°58' E 136°39'3 6.8
2018-Jan-18 23:00N 34°55' E 136°42'611.7
2018-Jan-18 22:30N 34°50' E 136°45'611.8
2018-Jan-18 22:00N 34°45' E 136°50'7210.7
2018-Jan-18 15:13N 34°35' E 138°17'710.8
2018-Jan-18 14:36N 34°37' E 138°25'410.7
2018-Jan-18 14:14N 34°37' E 138°29'57 9.6
2018-Jan-18 08:15N 35°03' E 139°32'611.6
2018-Jan-18 07:45N 35°06' E 139°38'412.0
2018-Jan-18 07:25N 35°08' E 139°42'512.2
2018-Jan-18 07:00N 35°12' E 139°45'610.5
2018-Jan-18 06:27N 35°18' E 139°44'511.2
2018-Jan-18 06:00N 35°22' E 139°42'611.5
2018-Jan-18 05:29N 35°27' E 139°47'612.0
2018-Jan-18 05:00N 35°32' E 139°50'5 7.1
2018-Jan-18 04:14N 35°37' E 139°50'  

Dump ship's entire track history